Aeroporto :
LOGIN :

Iscrizione | Disclaimer

   EN    FR    IT 

 










Sommario :    VFR   VFR Marginale   IFR   IFR Intensivo   IFR Molto Intensivo
Visibilità : 
Base nubi : 
>= 8 km
>= 3000ft
5 / 8 km
1000 / 3000 ft
1500m / 5 km
500 / 1000 ft
800 / 1500m
200 / 500 ft
< 800m
< 200 ft
Simboli :   Temporali  Nebbia  Neve Forte  Precipitazioni Forti  Vento > 20 kt
SIGMETs :   Varie  Temporali  Ghiacco  Turbolenza  Onda orograficha  Ceneri Vulcaniche






- Altitudine del aeroporto : 1411 ft
- Codice IATA : GVA


LSGG - Genève Cointrin

ULTIMO METAR :
  • 192150Z 14002KT 9999 SCT070 03/02 Q1028 NOSIG

METARs OBSOLETI :
  • 192120Z VRB01KT 9999 SCT080 04/02 Q1028 NOSIG
  • 192050Z 23003KT 9999 FEW070 05/02 Q1028 NOSIG
  • 192020Z 24004KT 9999 SCT065 BKN075 05/02 Q1028 NOSIG
  • 191950Z 19003KT 160V230 9999 FEW065 BKN085 05/03 Q1028 NOSIG
  • 191920Z 25005KT 9999 FEW065 BKN085 06/03 Q1028 NOSIG

TAF TAF LSGG
Valido dal 19 a 21 ore il 21 a 03 ore UTC


192025Z 1921/2103 VRB03KT 9999 FEW040 BKN060 TX12/2015Z TNM01/2006Z
BECMG 2007/2009 CAVOK
BECMG 2010/2012 23010KT
BECMG 2022/2024 9999 BKN045
ATIS : +41 22 417 40 81



MetMap, La meteo Aeronautica in un colpo d'occhio ! - Copyright ORBIFLY Dicembre 2007 - Disclaimer

ORBIFLY MET'MAP TEAM :

Programmazione e sviluppo : Alexandra Zaïnal
Concezione : Baudouin d'Aumeries
Aiuto per la programmazione : Marc-Olivier Méhu
Supporto tecnico e logistico : Manuel Goepfert
Aiuto per la traduzione : Arnaldo La Scala

Contatto : metmap@orbifly.com




FONTI E CREDITI :

   NOAA